SBBRYZYX KWBCYMYX SOZZMAMX SYZZMAMX TBPBYMYX TNCCYMYX

TNCAYMYX TFFFYMYX TFFRYMYX TTPPYMYX EGZZMNAM

231600 SMJPYMYX

FTSM20 SMJP 231600

TAF SMJP 231600Z 2318/2418 15008KT 9999 SCT040 TX35/2318Z TN23/2410Z TEMPO 2319/2321 TS FEW015CB TEMPO 2409/2411 3000 BR SCT005=

 

 

TAF SMZO 231600Z 2318/2417 12008KT 9999 SCT040 TX35/2318Z TN25/2410Z TEMPO 2319/2321 TS FEW015CB=

 

 

 

 

D.S.